Terminal Aerodrome Forecast
Issued by NWS

Home | Current Version | Previous Version | Text Only | Print | Product List | Glossary On
Versions: 1 2 3 4 5 6 7 8 9 10 11 12 13 14 15 16 17 18 19 20 21 22 23 24 25 26 27 28 29 30 31 32 33 34 35 36 37 38 39 40 41 42 43 44 45 46 47 48 49 50
000
FTUS44 KLIX 262336
TAFASD
TAF
KASD 262336Z 2700/2724 18004KT P6SM BKN250
     FM271000 09006KT P6SM BKN008
     FM271200 07007KT P6SM VCTS BKN003CB
     FM271600 10011KT P6SM VCTS BKN015CB
     FM271800 11012KT 4SM SHRA BKN025
      TEMPO 2719/2723 VRB25G35KT +TSRA OVC010CB
     FM272300 07011KT 4SM SHRA BKN015=

USA.gov is the U.S. government's official web portal to all federal, state and local government web resources and services.